createdAt,value
2022-09-18T00:00:44.155Z,96772.06
2022-09-18T00:02:45.463Z,96762.72
2022-09-18T00:04:47.126Z,96764.34
2022-09-18T00:06:48.398Z,96755.84
2022-09-18T00:08:51.247Z,96758.44
2022-09-18T00:10:52.935Z,96754.22
2022-09-18T00:12:54.216Z,96761.03
2022-09-18T00:14:55.524Z,96755.09
2022-09-18T00:16:56.856Z,96756.78
2022-09-18T00:18:58.254Z,96755.66
2022-09-18T00:20:59.725Z,96761.41
2022-09-18T00:23:01.026Z,96753.22
2022-09-18T00:25:02.347Z,96759.44
2022-09-18T00:27:03.605Z,96747.63
2022-09-18T00:29:04.967Z,96752.84
2022-09-18T00:31:06.348Z,96756.34
2022-09-18T00:33:07.699Z,96747.09
2022-09-18T00:35:08.984Z,96747.16
2022-09-18T00:37:10.295Z,96754.66
2022-09-18T00:39:11.887Z,96747.84
2022-09-18T00:41:13.198Z,96751.25
2022-09-18T00:43:14.475Z,96753.78
2022-09-18T00:45:15.749Z,96751.25
2022-09-18T00:47:17.140Z,96759.25
2022-09-18T00:49:18.457Z,96759.16
2022-09-18T00:51:19.749Z,96755.00
2022-09-18T00:53:21.098Z,96754.22
2022-09-18T00:55:23.995Z,96750.84
2022-09-18T00:57:25.265Z,96761.03
2022-09-18T00:59:26.602Z,96748.47
2022-09-18T01:01:27.982Z,96757.16
2022-09-18T01:03:29.296Z,96756.41
2022-09-18T01:05:30.583Z,96748.75
2022-09-18T01:07:31.907Z,96756.50
2022-09-18T01:09:33.230Z,96750.59
2022-09-18T01:11:34.498Z,96751.44
2022-09-18T01:13:36.120Z,96748.97
2022-09-18T01:15:37.654Z,96750.69
2022-09-18T01:17:38.980Z,96744.75
2022-09-18T01:19:40.297Z,96743.91
2022-09-18T01:21:41.613Z,96737.94
2022-09-18T01:23:42.944Z,96740.41
2022-09-18T01:25:44.250Z,96731.06
2022-09-18T01:27:45.556Z,96738.72
2022-09-18T01:29:46.810Z,96740.50
2022-09-18T01:31:48.308Z,96737.13
2022-09-18T01:33:49.599Z,96738.03
2022-09-18T01:35:50.921Z,96736.03
2022-09-18T01:37:52.316Z,96741.81
2022-09-18T01:39:54.229Z,96741.81
2022-09-18T01:41:55.587Z,96738.47
2022-09-18T01:43:56.859Z,96741.00
2022-09-18T01:45:59.402Z,96739.28
2022-09-18T01:48:00.678Z,96742.72
2022-09-18T01:50:01.974Z,96751.19
2022-09-18T01:52:03.271Z,96741.94
2022-09-18T01:54:04.597Z,96747.84
2022-09-18T01:56:05.889Z,96752.13
2022-09-18T01:58:07.168Z,96748.81
2022-09-18T02:00:08.833Z,96745.31
2022-09-18T02:02:10.248Z,96746.91
2022-09-18T02:04:11.586Z,96741.94
2022-09-18T02:06:12.868Z,96747.03
2022-09-18T02:08:15.436Z,96747.94
2022-09-18T02:10:16.716Z,96748.81
2022-09-18T02:12:17.980Z,96743.72
2022-09-18T02:14:19.234Z,96743.72
2022-09-18T02:16:20.604Z,96740.28
2022-09-18T02:18:21.964Z,96748.81
2022-09-18T02:20:23.253Z,96750.50
2022-09-18T02:22:24.648Z,96742.06
2022-09-18T02:24:25.922Z,96758.22
2022-09-18T02:26:27.198Z,96747.16
2022-09-18T02:28:28.468Z,96745.19
2022-09-18T02:30:29.819Z,96751.19
2022-09-18T02:32:31.086Z,96747.03
2022-09-18T02:34:32.530Z,96744.53
2022-09-18T02:36:34.223Z,96755.59
2022-09-18T02:38:35.487Z,96746.31
2022-09-18T02:40:38.216Z,96747.97
2022-09-18T02:42:39.551Z,96756.44
2022-09-18T02:44:40.823Z,96747.97
2022-09-18T02:46:42.171Z,96771.84
2022-09-18T02:48:43.567Z,96738.78
2022-09-18T02:50:44.840Z,96748.97
2022-09-18T02:52:46.161Z,96760.88
2022-09-18T02:54:47.426Z,96752.41
2022-09-18T02:56:48.682Z,96749.84
2022-09-18T02:58:49.959Z,96753.31
2022-09-18T03:00:51.223Z,96765.25
2022-09-18T03:02:52.577Z,96753.34
2022-09-18T03:04:53.925Z,96768.63
2022-09-18T03:06:55.233Z,96765.25
2022-09-18T03:08:56.838Z,96769.53
2022-09-18T03:10:58.154Z,96772.09
2022-09-18T03:12:59.447Z,96760.97
2022-09-18T03:15:00.772Z,96768.69
2022-09-18T03:17:02.063Z,96766.19
2022-09-18T03:19:03.344Z,96754.09
2022-09-18T03:21:04.837Z,96771.13
2022-09-18T03:23:06.269Z,96763.59
2022-09-18T03:25:07.550Z,96768.72
2022-09-18T03:27:10.515Z,96767.97
2022-09-18T03:29:11.793Z,96772.22
2022-09-18T03:31:13.233Z,96774.81
2022-09-18T03:33:14.626Z,96770.56
2022-09-18T03:35:15.941Z,96768.13
2022-09-18T03:37:17.251Z,96763.88
2022-09-18T03:39:18.523Z,96764.75
2022-09-18T03:41:19.777Z,96772.44
2022-09-18T03:43:21.099Z,96769.03
2022-09-18T03:45:22.352Z,96764.81
2022-09-18T03:47:23.781Z,96769.91
2022-09-18T03:49:26.509Z,96765.69
2022-09-18T03:51:27.783Z,96772.53
2022-09-18T03:53:29.090Z,96764.06
2022-09-18T03:55:30.390Z,96769.19
2022-09-18T03:57:31.950Z,96776.81
2022-09-18T03:59:33.898Z,96782.81
2022-09-18T04:01:35.239Z,96773.50
2022-09-18T04:03:36.542Z,96775.22
2022-09-18T04:05:37.873Z,96779.50
2022-09-18T04:07:39.148Z,96773.56
2022-09-18T04:09:40.711Z,96782.91
2022-09-18T04:11:41.995Z,96785.47
2022-09-18T04:13:43.316Z,96788.56
2022-09-18T04:15:45.380Z,96789.34
2022-09-18T04:17:46.735Z,96792.91
2022-09-18T04:19:53.245Z,96802.13
2022-09-18T04:21:54.971Z,96796.25
2022-09-18T04:23:56.242Z,96806.50
2022-09-18T04:25:57.579Z,96809.88
2022-09-18T04:27:58.883Z,96682.28
2022-09-18T04:30:00.208Z,96812.53
2022-09-18T04:32:01.484Z,96815.16
2022-09-18T04:34:02.914Z,96814.31
2022-09-18T04:36:04.220Z,96824.44
2022-09-18T04:38:05.491Z,96812.63
2022-09-18T04:40:07.860Z,96824.53
2022-09-18T04:42:09.186Z,96817.78
2022-09-18T04:44:10.499Z,96810.91
2022-09-18T04:46:12.166Z,96700.00
2022-09-18T04:48:13.463Z,96811.78
2022-09-18T04:50:15.115Z,96826.22
2022-09-18T04:52:19.198Z,96828.91
2022-09-18T04:54:20.594Z,96839.19
2022-09-18T04:56:21.876Z,96836.75
2022-09-18T04:58:23.731Z,96837.63
2022-09-18T05:00:25.233Z,96830.81
2022-09-18T05:02:26.661Z,96836.75
2022-09-18T05:04:28.023Z,96840.81
2022-09-18T05:06:29.299Z,96834.78
2022-09-18T05:08:30.650Z,96849.88
2022-09-18T05:10:31.977Z,96846.38
2022-09-18T05:12:33.247Z,96850.66
2022-09-18T05:14:34.551Z,96857.69
2022-09-18T05:16:35.917Z,96856.09
2022-09-18T05:18:37.214Z,96862.09
2022-09-18T05:20:38.525Z,96857.84
2022-09-18T05:22:39.799Z,96867.19
2022-09-18T05:24:41.122Z,96863.75
2022-09-18T05:26:42.538Z,96870.50
2022-09-18T05:28:43.839Z,96878.22
2022-09-18T05:30:45.651Z,96868.94
2022-09-18T05:32:46.937Z,96864.78
2022-09-18T05:34:50.125Z,96882.66
2022-09-18T05:36:51.419Z,96878.44
2022-09-18T05:38:52.859Z,96891.16
2022-09-18T05:40:54.195Z,96886.06
2022-09-18T05:42:55.572Z,96896.22
2022-09-18T05:45:01.628Z,96895.31
2022-09-18T05:47:03.218Z,96897.94
2022-09-18T05:49:06.396Z,96903.88
2022-09-18T05:51:07.825Z,96905.50
2022-09-18T05:53:09.126Z,96906.16
2022-09-18T05:55:10.527Z,96915.41
2022-09-18T05:57:11.823Z,96918.72
2022-09-18T05:59:13.121Z,96918.72
2022-09-18T06:01:14.605Z,96917.22
2022-09-18T06:03:15.971Z,96920.75
2022-09-18T06:05:17.315Z,96923.38
2022-09-18T06:07:18.591Z,96932.72
2022-09-18T06:09:19.878Z,96933.56
2022-09-18T06:11:21.154Z,96939.41
2022-09-18T06:13:23.034Z,96933.47
2022-09-18T06:15:24.349Z,96947.91
2022-09-18T06:17:25.702Z,96941.97
2022-09-18T06:19:27.051Z,96942.75
2022-09-18T06:21:28.354Z,96945.91
2022-09-18T06:23:29.888Z,96948.44
2022-09-18T06:25:31.803Z,96947.66
2022-09-18T06:27:33.075Z,96947.72
2022-09-18T06:29:34.525Z,96944.16
2022-09-18T06:31:35.905Z,96941.72
2022-09-18T06:33:37.554Z,96954.59
2022-09-18T06:35:38.851Z,96957.13
2022-09-18T06:37:40.105Z,96959.78
2022-09-18T06:39:41.963Z,96957.34
2022-09-18T06:41:43.226Z,96953.94
2022-09-18T06:43:44.509Z,96959.81
2022-09-18T06:45:46.053Z,96958.97
2022-09-18T06:47:47.463Z,96966.72
2022-09-18T06:49:48.747Z,96966.66
2022-09-18T06:51:50.029Z,96967.53
2022-09-18T06:53:51.335Z,96968.56
2022-09-18T06:55:52.824Z,96976.94
2022-09-18T06:57:54.289Z,96973.69
2022-09-18T06:59:55.791Z,96974.56
2022-09-18T07:01:57.373Z,96984.97
2022-09-18T07:03:58.692Z,96996.50
2022-09-18T07:06:00.030Z,96985.00
2022-09-18T07:08:01.755Z,96994.66
2022-09-18T07:10:05.783Z,96994.94
2022-09-18T07:12:10.234Z,96991.78
2022-09-18T07:14:11.735Z,96989.38
2022-09-18T07:16:13.591Z,96996.28
2022-09-18T07:18:14.936Z,96987.91
2022-09-18T07:20:17.083Z,96995.59
2022-09-18T07:22:18.362Z,96995.63
2022-09-18T07:24:19.838Z,96999.13
2022-09-18T07:26:21.153Z,96993.22
2022-09-18T07:28:22.447Z,96994.03
2022-09-18T07:30:23.810Z,96993.22
2022-09-18T07:32:25.083Z,96994.09
2022-09-18T07:34:26.508Z,97005.16
2022-09-18T07:36:28.014Z,97008.59
2022-09-18T07:38:29.322Z,97000.97
2022-09-18T07:40:31.368Z,97006.06
2022-09-18T07:42:32.795Z,97003.59
2022-09-18T07:44:35.073Z,97014.59
2022-09-18T07:46:36.468Z,97011.22
2022-09-18T07:48:38.774Z,97011.25
2022-09-18T07:50:40.198Z,97018.94
2022-09-18T07:52:41.538Z,97016.38
2022-09-18T07:54:42.815Z,97024.06
2022-09-18T07:56:46.855Z,97019.88
2022-09-18T07:58:48.547Z,97021.56
2022-09-18T08:00:49.861Z,97028.41
2022-09-18T08:02:51.286Z,97030.13
2022-09-18T08:04:52.728Z,97016.63
2022-09-18T08:06:54.092Z,97024.16
2022-09-18T08:08:55.437Z,97022.44
2022-09-18T08:10:56.740Z,97019.88
2022-09-18T08:12:58.007Z,97017.31
2022-09-18T08:14:59.282Z,97015.47
2022-09-18T08:17:00.851Z,97017.09
2022-09-18T08:19:02.325Z,97013.69
2022-09-18T08:21:06.265Z,97020.47
2022-09-18T08:23:11.218Z,97028.13
2022-09-18T08:25:12.522Z,97016.25
2022-09-18T08:27:13.852Z,97017.16
2022-09-18T08:29:19.126Z,97018.03
2022-09-18T08:31:20.717Z,97018.09
2022-09-18T08:33:22.091Z,97017.00
2022-09-18T08:35:23.420Z,97016.91
2022-09-18T08:37:24.694Z,97020.47
2022-09-18T08:39:25.971Z,97017.97
2022-09-18T08:41:27.311Z,97019.78
2022-09-18T08:43:29.490Z,97019.75
2022-09-18T08:45:30.788Z,97023.41
2022-09-18T08:47:32.142Z,97018.41
2022-09-18T08:49:33.480Z,97014.06
2022-09-18T08:51:34.791Z,97029.28
2022-09-18T08:53:36.057Z,97023.91
2022-09-18T08:55:37.331Z,97020.84
2022-09-18T08:57:38.783Z,97024.81
2022-09-18T08:59:40.045Z,97018.63
2022-09-18T09:01:41.359Z,97025.59
2022-09-18T09:03:42.803Z,97024.13
2022-09-18T09:05:44.106Z,97025.56
2022-09-18T09:07:46.155Z,97037.44
2022-09-18T09:09:47.416Z,97035.72
2022-09-18T09:11:48.827Z,97030.03
2022-09-18T09:13:50.264Z,97026.75
2022-09-18T09:15:51.950Z,97028.03
2022-09-18T09:17:53.315Z,97027.81
2022-09-18T09:19:55.179Z,97029.28
2022-09-18T09:21:56.444Z,97030.38
2022-09-18T09:23:58.003Z,97030.19
2022-09-18T09:25:59.970Z,97025.94
2022-09-18T09:28:01.264Z,97033.53
2022-09-18T09:30:02.593Z,97022.41
2022-09-18T09:32:03.914Z,97045.31
2022-09-18T09:34:05.226Z,97022.94
2022-09-18T09:36:06.495Z,97034.91
2022-09-18T09:38:07.770Z,97036.63
2022-09-18T09:40:09.967Z,97028.72
2022-09-18T09:42:11.261Z,97038.31
2022-09-18T09:44:12.537Z,97031.25
2022-09-18T09:46:16.982Z,97044.16
2022-09-18T09:48:20.638Z,97032.53
2022-09-18T09:50:21.935Z,97034.34
2022-09-18T09:52:23.275Z,97039.16
2022-09-18T09:54:24.552Z,97041.38
2022-09-18T09:56:25.825Z,97036.19
2022-09-18T09:58:27.183Z,97032.69
2022-09-18T10:00:28.478Z,97038.81
2022-09-18T10:02:29.854Z,97042.31
2022-09-18T10:04:31.618Z,97038.31
2022-09-18T10:06:32.872Z,97046.53
2022-09-18T10:08:34.432Z,97045.88
2022-09-18T10:10:35.702Z,97050.13
2022-09-18T10:12:36.987Z,97045.19
2022-09-18T10:14:38.264Z,97053.69
2022-09-18T10:16:39.611Z,97047.84
2022-09-18T10:18:40.980Z,97048.66
2022-09-18T10:20:42.307Z,97052.75
2022-09-18T10:22:43.593Z,97058.00
2022-09-18T10:24:44.895Z,97055.56
2022-09-18T10:26:46.167Z,97053.88
2022-09-18T10:28:47.699Z,97055.59
2022-09-18T10:30:48.967Z,97062.19
2022-09-18T10:32:50.644Z,97061.84
2022-09-18T10:34:51.923Z,97060.16
2022-09-18T10:36:53.201Z,97041.81
2022-09-18T10:38:54.530Z,96920.91
2022-09-18T10:40:56.290Z,97066.91
2022-09-18T10:42:57.591Z,97055.97
2022-09-18T10:45:01.799Z,97055.81
2022-09-18T10:47:03.676Z,97062.44
2022-09-18T10:49:05.643Z,97056.19
2022-09-18T10:51:06.966Z,97057.84
2022-09-18T10:53:08.235Z,97059.75
2022-09-18T10:55:09.555Z,97053.69
2022-09-18T10:57:10.888Z,97054.47
2022-09-18T10:59:12.215Z,97049.56
2022-09-18T11:01:13.607Z,97046.22
2022-09-18T11:03:14.962Z,97042.81
2022-09-18T11:05:16.326Z,97038.78
2022-09-18T11:07:18.468Z,97035.94
2022-09-18T11:09:21.733Z,97039.38
2022-09-18T11:11:23.066Z,97034.19
2022-09-18T11:13:24.401Z,97034.88
2022-09-18T11:15:25.678Z,97039.88
2022-09-18T11:17:27.155Z,97040.66
2022-09-18T11:19:29.614Z,97032.03
2022-09-18T11:21:30.977Z,97034.59
2022-09-18T11:23:32.253Z,97032.00
2022-09-18T11:25:33.515Z,97034.41
2022-09-18T11:27:34.826Z,97034.31
2022-09-18T11:29:39.812Z,97027.63
2022-09-18T11:31:41.174Z,97033.06
2022-09-18T11:33:42.475Z,97035.94
2022-09-18T11:35:43.730Z,97029.50
2022-09-18T11:37:45.196Z,97020.28
2022-09-18T11:39:46.495Z,97059.56
2022-09-18T11:41:47.768Z,97036.03
2022-09-18T11:43:49.051Z,97055.81
2022-09-18T11:45:50.882Z,97043.41
2022-09-18T11:47:52.378Z,97046.13
2022-09-18T11:49:53.711Z,97052.13
2022-09-18T11:51:55.155Z,97042.47
2022-09-18T11:53:57.718Z,97040.31
2022-09-18T11:55:59.078Z,97037.34
2022-09-18T11:58:00.418Z,97035.22
2022-09-18T12:00:01.985Z,97047.56
2022-09-18T12:02:03.458Z,97039.94
2022-09-18T12:04:04.822Z,97035.03
2022-09-18T12:06:06.094Z,97040.78
2022-09-18T12:08:06.042Z,97062.94
2022-09-18T12:10:07.335Z,97076.50
2022-09-18T12:12:08.830Z,97069.06
2022-09-18T12:14:10.107Z,97065.19
2022-09-18T12:16:12.076Z,97060.94
2022-09-18T12:18:13.414Z,97052.94
2022-09-18T12:20:14.712Z,97057.88
2022-09-18T12:22:15.993Z,97047.38
2022-09-18T12:24:17.705Z,97037.00
2022-09-18T12:26:19.030Z,97039.50
2022-09-18T12:28:20.432Z,97032.84
2022-09-18T12:30:22.022Z,97026.56
2022-09-18T12:32:23.357Z,97025.59
2022-09-18T12:34:24.642Z,97020.03
2022-09-18T12:36:26.023Z,97008.75
2022-09-18T12:38:27.306Z,97007.69
2022-09-18T12:40:29.346Z,97005.00
2022-09-18T12:42:30.683Z,97005.81
2022-09-18T12:44:31.953Z,97003.94
2022-09-18T12:46:33.282Z,97004.75
2022-09-18T12:48:34.576Z,97008.06
2022-09-18T12:50:35.904Z,97002.91
2022-09-18T12:52:43.510Z,96874.16
2022-09-18T12:54:58.014Z,96995.84
2022-09-18T12:56:59.334Z,96994.91
2022-09-18T12:59:00.666Z,96993.88
2022-09-18T13:01:03.356Z,96994.41
2022-09-18T13:03:04.773Z,96990.88
2022-09-18T13:05:06.080Z,96995.66
2022-09-18T13:07:07.387Z,96998.31
2022-09-18T13:09:08.918Z,96997.75
2022-09-18T13:11:10.227Z,96986.13
2022-09-18T13:13:11.534Z,96990.63
2022-09-18T13:15:12.805Z,96986.88
2022-09-18T13:17:14.865Z,96982.91
2022-09-18T13:19:16.193Z,96979.22
2022-09-18T13:21:17.502Z,96978.38
2022-09-18T13:23:19.047Z,96974.47
2022-09-18T13:25:20.536Z,96979.31
2022-09-18T13:27:21.810Z,96989.03
2022-09-18T13:29:23.250Z,96983.78
2022-09-18T13:31:24.676Z,96981.19
2022-09-18T13:33:26.026Z,96985.28
2022-09-18T13:35:27.611Z,96988.66
2022-09-18T13:37:29.158Z,96971.75
2022-09-18T13:39:46.046Z,96978.06
2022-09-18T13:41:53.388Z,96975.78
2022-09-18T13:43:54.806Z,96968.50
2022-09-18T13:45:56.416Z,96965.41
2022-09-18T13:47:57.777Z,96959.66
2022-09-18T13:50:00.380Z,96959.84
2022-09-18T13:52:01.718Z,96960.91
2022-09-18T13:54:03.092Z,96965.22
2022-09-18T13:56:04.467Z,96961.66
2022-09-18T13:58:05.747Z,96952.38
2022-09-18T14:00:09.621Z,96943.00
2022-09-18T14:02:10.978Z,96955.22
2022-09-18T14:04:12.269Z,96958.06
2022-09-18T14:06:14.017Z,96967.53
2022-09-18T14:08:15.655Z,96951.16
2022-09-18T14:10:16.955Z,96958.06
2022-09-18T14:12:18.241Z,96951.16
2022-09-18T14:14:19.588Z,96960.03
2022-09-18T14:16:24.068Z,96967.75
2022-09-18T14:18:25.989Z,96970.19
2022-09-18T14:20:27.319Z,96962.53
2022-09-18T14:22:28.677Z,96954.16
2022-09-18T14:24:30.046Z,96964.31
2022-09-18T14:26:31.943Z,96956.28
2022-09-18T14:28:33.620Z,96957.88
2022-09-18T14:30:34.881Z,96957.75
2022-09-18T14:32:36.160Z,96953.78
2022-09-18T14:34:37.841Z,96956.41
2022-09-18T14:36:39.697Z,96967.81
2022-09-18T14:38:41.289Z,96959.66
2022-09-18T14:40:42.867Z,96958.94
2022-09-18T14:42:44.169Z,96948.75
2022-09-18T14:44:45.472Z,96957.38
2022-09-18T14:46:46.849Z,96942.06
2022-09-18T14:48:48.158Z,96956.44
2022-09-18T14:50:49.428Z,96954.78
2022-09-18T14:52:50.719Z,96959.00
2022-09-18T14:54:52.026Z,96955.78
2022-09-18T14:56:53.357Z,96967.78
2022-09-18T14:58:54.689Z,96961.97
2022-09-18T15:00:56.153Z,96962.13
2022-09-18T15:02:58.583Z,96954.38
2022-09-18T15:05:01.259Z,96944.75
2022-09-18T15:07:02.808Z,96953.25
2022-09-18T15:09:05.524Z,96963.25
2022-09-18T15:11:07.143Z,96965.97
2022-09-18T15:13:08.471Z,96957.50
2022-09-18T15:15:09.793Z,96958.31
2022-09-18T15:17:11.601Z,96967.56
2022-09-18T15:19:12.883Z,96972.78
2022-09-18T15:21:14.167Z,96975.28
2022-09-18T15:23:15.452Z,96969.69
2022-09-18T15:25:16.764Z,96975.34
2022-09-18T15:27:18.513Z,96970.72
2022-09-18T15:29:20.170Z,96967.63
2022-09-18T15:31:21.559Z,96965.25
2022-09-18T15:33:26.427Z,96840.94
2022-09-18T15:35:28.077Z,96970.59
2022-09-18T15:37:29.517Z,96962.22
2022-09-18T15:39:30.867Z,96958.88
2022-09-18T15:41:32.186Z,96960.69
2022-09-18T15:43:40.985Z,96960.81
2022-09-18T15:45:42.460Z,96958.03
2022-09-18T15:47:45.076Z,96956.97
2022-09-18T15:49:46.435Z,96961.94
2022-09-18T15:51:47.694Z,96968.13
2022-09-18T15:53:49.040Z,96964.75
2022-09-18T15:55:53.897Z,96970.63
2022-09-18T15:57:55.535Z,96966.25
2022-09-18T15:59:57.811Z,96966.25
2022-09-18T16:01:59.171Z,96962.31
2022-09-18T16:04:04.518Z,96963.34
2022-09-18T16:06:08.641Z,96965.06
2022-09-18T16:08:09.921Z,96974.69
2022-09-18T16:10:12.216Z,96972.69
2022-09-18T16:12:13.475Z,96961.72
2022-09-18T16:14:14.798Z,96957.56
2022-09-18T16:16:16.192Z,96955.97
2022-09-18T16:18:17.510Z,96963.41
2022-09-18T16:20:18.790Z,96964.69
2022-09-18T16:22:20.065Z,96973.88
2022-09-18T16:24:21.594Z,96960.16
2022-09-18T16:26:24.510Z,96946.81
2022-09-18T16:28:25.866Z,96941.59
2022-09-18T16:30:27.159Z,96945.88
2022-09-18T16:32:28.434Z,96945.66
2022-09-18T16:34:29.775Z,96950.47
2022-09-18T16:36:31.139Z,96945.03
2022-09-18T16:38:32.521Z,96943.25
2022-09-18T16:40:33.814Z,96942.91
2022-09-18T16:42:35.110Z,96946.66
2022-09-18T16:44:36.443Z,96950.25
2022-09-18T16:46:37.771Z,96941.06
2022-09-18T16:48:39.091Z,96939.44
2022-09-18T16:50:40.695Z,96937.97
2022-09-18T16:52:41.966Z,96939.72
2022-09-18T16:54:43.231Z,96935.53
2022-09-18T16:56:44.606Z,96933.88
2022-09-18T16:58:45.923Z,96938.13
2022-09-18T17:00:47.345Z,96935.75
2022-09-18T17:02:51.390Z,96934.94
2022-09-18T17:04:52.686Z,96945.25
2022-09-18T17:06:54.034Z,96945.28
2022-09-18T17:08:55.327Z,96946.22
2022-09-18T17:10:56.675Z,96943.78
2022-09-18T17:12:58.024Z,96955.72
2022-09-18T17:14:59.318Z,96949.03
2022-09-18T17:17:00.679Z,96948.25
2022-09-18T17:19:02.022Z,96944.94
2022-09-18T17:21:03.366Z,96798.41
2022-09-18T17:23:04.624Z,96940.81
2022-09-18T17:25:05.927Z,96940.88
2022-09-18T17:27:07.237Z,96942.66
2022-09-18T17:29:08.558Z,96948.66
2022-09-18T17:31:10.212Z,96940.84
2022-09-18T17:33:12.688Z,96940.09
2022-09-18T17:35:13.978Z,96941.88
2022-09-18T17:37:17.613Z,96943.91
2022-09-18T17:39:19.027Z,96948.03
2022-09-18T17:41:20.475Z,96943.06
2022-09-18T17:43:23.885Z,96938.81
2022-09-18T17:45:25.196Z,96951.59
2022-09-18T17:47:31.970Z,96949.38
2022-09-18T17:49:33.323Z,96948.78
2022-09-18T17:51:34.605Z,96943.81
2022-09-18T17:53:38.779Z,96952.28
2022-09-18T17:55:40.085Z,96939.53
2022-09-18T17:57:41.442Z,96941.91
2022-09-18T17:59:42.729Z,96941.03
2022-09-18T18:01:46.622Z,96941.03
2022-09-18T18:03:48.941Z,96943.69
2022-09-18T18:05:50.224Z,96942.75
2022-09-18T18:07:51.501Z,96945.22
2022-09-18T18:09:52.822Z,96944.19
2022-09-18T18:11:55.096Z,96946.50
2022-09-18T18:13:56.385Z,96945.13
2022-09-18T18:15:58.511Z,96952.25
2022-09-18T18:17:59.832Z,96950.72
2022-09-18T18:20:01.108Z,96957.28
2022-09-18T18:22:02.447Z,96955.44
2022-09-18T18:24:04.793Z,96947.91
2022-09-18T18:26:06.792Z,96954.50
2022-09-18T18:28:11.915Z,96951.81
2022-09-18T18:30:13.206Z,96959.81
2022-09-18T18:32:17.561Z,96954.22
2022-09-18T18:34:22.256Z,96961.09
2022-09-18T18:36:23.641Z,96959.38
2022-09-18T18:38:24.963Z,96957.22
2022-09-18T18:40:27.030Z,96965.75
2022-09-18T18:42:28.837Z,96961.53
2022-09-18T18:44:31.194Z,96955.41
2022-09-18T18:46:38.614Z,96958.00
2022-09-18T18:48:47.879Z,96964.66
2022-09-18T18:50:50.283Z,96966.22
2022-09-18T18:52:51.570Z,96971.78
2022-09-18T18:54:52.898Z,96954.38
2022-09-18T18:56:54.175Z,96961.47
2022-09-18T18:58:55.960Z,96963.25
2022-09-18T19:00:57.362Z,96958.34
2022-09-18T19:02:59.024Z,96962.59
2022-09-18T19:05:02.806Z,96963.47
2022-09-18T19:07:04.097Z,96963.25
2022-09-18T19:09:05.488Z,96965.63
2022-09-18T19:11:06.874Z,96966.53
2022-09-18T19:13:08.161Z,96964.03
2022-09-18T19:15:11.544Z,96971.69
2022-09-18T19:17:14.628Z,96976.09
2022-09-18T19:19:17.619Z,96969.47
2022-09-18T19:21:20.586Z,96970.41
2022-09-18T19:23:21.973Z,96967.47
2022-09-18T19:25:23.274Z,96970.22
2022-09-18T19:27:24.854Z,96969.16
2022-09-18T19:29:26.405Z,96964.72
2022-09-18T19:31:27.947Z,96970.34
2022-09-18T19:33:29.739Z,96965.91
2022-09-18T19:35:35.435Z,96965.03
2022-09-18T19:37:38.791Z,96970.88
2022-09-18T19:39:40.283Z,96964.94
2022-09-18T19:41:41.641Z,96969.94
2022-09-18T19:43:42.960Z,96964.94
2022-09-18T19:45:48.376Z,96967.41
2022-09-18T19:47:51.316Z,96959.84
2022-09-18T19:49:52.614Z,96961.44
2022-09-18T19:51:53.877Z,96962.47
2022-09-18T19:53:55.142Z,96957.69
2022-09-18T19:55:56.482Z,96962.03
2022-09-18T19:57:57.805Z,96957.88
2022-09-18T20:00:01.093Z,96954.94
2022-09-18T20:02:02.422Z,96963.09
2022-09-18T20:04:03.855Z,96961.47
2022-09-18T20:06:05.189Z,96960.66
2022-09-18T20:08:06.522Z,96966.72
2022-09-18T20:10:07.846Z,96960.91
2022-09-18T20:12:09.158Z,96967.81
2022-09-18T20:14:10.929Z,96952.47
2022-09-18T20:16:12.356Z,96959.34
2022-09-18T20:18:13.639Z,96952.56
2022-09-18T20:20:16.596Z,96954.41
2022-09-18T20:22:18.390Z,96956.22
2022-09-18T20:24:19.700Z,96947.81
2022-09-18T20:26:21.005Z,96951.28
2022-09-18T20:28:22.905Z,96951.31
2022-09-18T20:30:24.238Z,96957.28
2022-09-18T20:32:25.726Z,96953.97
2022-09-18T20:34:27.104Z,96946.31
2022-09-18T20:36:29.357Z,96948.94
2022-09-18T20:38:31.184Z,96948.16
2022-09-18T20:40:32.623Z,96942.28
2022-09-18T20:42:34.546Z,96943.16
2022-09-18T20:44:35.847Z,96942.44
2022-09-18T20:46:37.772Z,96937.44
2022-09-18T20:48:41.289Z,96945.88
2022-09-18T20:50:44.372Z,96935.72
2022-09-18T20:52:45.694Z,96934.84
2022-09-18T20:54:47.025Z,96956.06
2022-09-18T20:56:48.283Z,96942.53
2022-09-18T20:58:51.581Z,96940.88
2022-09-18T21:00:54.272Z,96940.94
2022-09-18T21:02:55.607Z,96942.56
2022-09-18T21:04:57.681Z,96944.16
2022-09-18T21:07:01.717Z,96940.47
2022-09-18T21:09:03.025Z,96947.16
2022-09-18T21:11:04.334Z,96936.13
2022-09-18T21:13:06.416Z,96931.94
2022-09-18T21:15:08.022Z,96932.81
2022-09-18T21:17:10.730Z,96943.00
2022-09-18T21:19:12.017Z,96943.03
2022-09-18T21:21:13.309Z,96942.19
2022-09-18T21:23:33.483Z,96941.34
2022-09-18T21:25:35.163Z,96937.97
2022-09-18T21:27:36.706Z,96939.69
2022-09-18T21:29:40.663Z,96940.59
2022-09-18T21:31:44.785Z,96941.50
2022-09-18T21:33:46.102Z,96941.50
2022-09-18T21:35:47.403Z,96943.13
2022-09-18T21:37:48.893Z,96946.44
2022-09-18T21:39:50.328Z,96945.69
2022-09-18T21:41:53.191Z,96948.22
2022-09-18T21:43:55.318Z,96946.53
2022-09-18T21:45:57.401Z,96941.38
2022-09-18T21:47:58.870Z,96949.72
2022-09-18T21:50:00.237Z,96959.28
2022-09-18T21:52:01.512Z,96952.72
2022-09-18T21:54:05.509Z,96950.53
2022-09-18T21:56:06.837Z,96942.16
2022-09-18T21:58:08.096Z,96949.88
2022-09-18T22:00:09.868Z,96954.22
2022-09-18T22:02:13.668Z,96946.56
2022-09-18T22:04:15.018Z,96951.75
2022-09-18T22:06:16.301Z,96946.66
2022-09-18T22:08:17.606Z,96950.06
2022-09-18T22:10:18.877Z,96941.56
2022-09-18T22:12:20.163Z,96950.03
2022-09-18T22:14:22.759Z,96945.81
2022-09-18T22:16:24.063Z,96941.56
2022-09-18T22:18:25.370Z,96938.25
2022-09-18T22:20:26.817Z,96939.16
2022-09-18T22:22:28.121Z,96936.63
2022-09-18T22:24:29.448Z,96941.78
2022-09-18T22:26:30.740Z,96935.88
2022-09-18T22:28:32.097Z,96947.75
2022-09-18T22:30:33.377Z,96935.91
2022-09-18T22:32:34.724Z,96928.25
2022-09-18T22:34:36.036Z,96930.88
2022-09-18T22:36:37.345Z,96930.88
2022-09-18T22:38:38.604Z,96929.16
2022-09-18T22:40:39.940Z,96935.03
2022-09-18T22:42:41.259Z,96923.91
2022-09-18T22:44:42.584Z,96930.63
2022-09-18T22:46:43.959Z,96931.53
2022-09-18T22:48:45.446Z,96928.91
2022-09-18T22:50:46.775Z,96931.47
2022-09-18T22:52:48.213Z,96931.38
2022-09-18T22:54:49.538Z,96937.22
2022-09-18T22:56:51.869Z,96931.28
2022-09-18T22:58:53.192Z,96795.00
2022-09-18T23:00:54.484Z,96935.47
2022-09-18T23:02:56.177Z,96924.47
2022-09-18T23:04:58.433Z,96930.38
2022-09-18T23:06:59.797Z,96927.88
2022-09-18T23:09:01.119Z,96926.28
2022-09-18T23:11:02.459Z,96931.38
2022-09-18T23:13:03.744Z,96923.81
2022-09-18T23:15:05.057Z,96938.94
2022-09-18T23:17:07.109Z,96931.13
2022-09-18T23:19:09.978Z,96938.66
2022-09-18T23:21:14.162Z,96936.97
2022-09-18T23:23:15.434Z,96926.81
2022-09-18T23:25:16.717Z,96930.25
2022-09-18T23:27:18.097Z,96926.88
2022-09-18T23:29:20.602Z,96928.56
2022-09-18T23:31:21.976Z,96922.66
2022-09-18T23:33:23.298Z,96921.00
2022-09-18T23:35:24.559Z,96912.53
2022-09-18T23:37:25.997Z,96911.75
2022-09-18T23:39:28.591Z,96909.16
2022-09-18T23:41:29.901Z,96910.91
2022-09-18T23:43:31.164Z,96906.69
2022-09-18T23:45:34.662Z,96908.41
2022-09-18T23:47:38.107Z,96899.97
2022-09-18T23:49:39.430Z,96903.31